createdAt,value
2018-11-23T00:00:36.994Z,4.22
2018-11-23T00:03:05.887Z,4.22
2018-11-23T00:05:37.747Z,4.22
2018-11-23T00:08:05.914Z,4.21
2018-11-23T00:10:34.802Z,4.21
2018-11-23T00:13:03.218Z,4.21
2018-11-23T00:15:31.608Z,3.93
2018-11-23T00:18:00.631Z,4.20
2018-11-23T00:20:29.638Z,4.21
2018-11-23T00:22:57.713Z,4.22
2018-11-23T00:25:27.457Z,3.97
2018-11-23T00:27:56.433Z,4.18
2018-11-23T00:30:26.668Z,4.16
2018-11-23T00:32:55.838Z,4.15
2018-11-23T00:35:26.369Z,4.14
2018-11-23T00:37:56.102Z,4.14
2018-11-23T00:40:26.260Z,4.14
2018-11-23T00:42:54.626Z,4.13
2018-11-23T00:45:23.272Z,4.13
2018-11-23T00:47:52.402Z,4.13
2018-11-23T00:50:21.566Z,4.13
2018-11-23T00:52:50.462Z,4.14
2018-11-23T00:55:19.991Z,4.15
2018-11-23T00:57:48.232Z,4.16
2018-11-23T01:00:19.035Z,4.16
2018-11-23T01:02:47.555Z,4.16
2018-11-23T01:05:17.216Z,4.16
2018-11-23T01:07:46.164Z,3.54
2018-11-23T01:10:16.426Z,3.21
2018-11-23T01:12:45.607Z,4.14
2018-11-23T01:15:14.121Z,4.14
2018-11-23T01:17:42.593Z,4.10
2018-11-23T01:20:13.913Z,4.09
2018-11-23T01:22:42.595Z,4.09
2018-11-23T01:25:13.232Z,4.08
2018-11-23T01:27:42.522Z,3.95
2018-11-23T01:30:18.260Z,4.07
2018-11-23T01:32:46.816Z,4.07
2018-11-23T01:35:15.316Z,4.03
2018-11-23T01:37:43.807Z,4.06
2018-11-23T01:40:16.578Z,4.05
2018-11-23T01:42:49.657Z,4.05
2018-11-23T01:45:18.017Z,3.79
2018-11-23T01:47:46.632Z,4.04
2018-11-23T01:50:17.283Z,4.04
2018-11-23T01:52:46.958Z,3.88
2018-11-23T01:55:16.702Z,4.02
2018-11-23T01:57:45.135Z,3.50
2018-11-23T02:00:15.320Z,3.98
2018-11-23T02:02:44.385Z,3.85
2018-11-23T02:05:12.838Z,3.97
2018-11-23T02:07:41.885Z,3.96
2018-11-23T02:10:12.790Z,3.94
2018-11-23T02:12:42.690Z,3.93
2018-11-23T02:15:12.538Z,3.92
2018-11-23T02:17:41.045Z,3.89
2018-11-23T02:20:10.784Z,3.87
2018-11-23T02:22:38.992Z,3.73
2018-11-23T02:25:07.783Z,3.85
2018-11-23T02:27:36.242Z,3.85
2018-11-23T02:30:10.644Z,3.82
2018-11-23T02:32:40.608Z,3.53
2018-11-23T02:35:08.775Z,3.80
2018-11-23T02:37:37.317Z,3.78
2018-11-23T02:40:06.786Z,3.78
2018-11-23T02:42:35.115Z,3.76
2018-11-23T02:45:03.725Z,3.73
2018-11-23T02:47:32.520Z,3.70
2018-11-23T02:50:01.016Z,3.62
2018-11-23T02:52:29.314Z,3.55
2018-11-23T02:54:57.872Z,3.50
2018-11-23T02:57:26.190Z,3.29
2018-11-23T02:59:54.659Z,2.34
2018-11-23T03:02:23.920Z,3.25
2018-11-23T03:04:52.504Z,3.20
2018-11-23T03:07:21.010Z,3.16
2018-11-23T03:09:49.805Z,3.15
2018-11-23T03:12:18.172Z,2.39
2018-11-23T03:14:47.646Z,3.12
2018-11-23T03:17:15.915Z,3.10
2018-11-23T03:19:44.776Z,3.09
2018-11-23T03:22:13.752Z,3.05
2018-11-23T03:24:42.313Z,3.07
2018-11-23T03:27:10.693Z,3.05
2018-11-23T03:29:39.921Z,3.05
2018-11-23T03:32:08.643Z,3.03
2018-11-23T03:34:37.069Z,2.99
2018-11-23T03:37:05.667Z,2.70
2018-11-23T03:39:34.317Z,2.66
2018-11-23T03:42:02.833Z,2.87
2018-11-23T03:44:31.734Z,2.87
2018-11-23T03:47:00.235Z,2.87
2018-11-23T03:49:28.647Z,2.73
2018-11-23T03:51:57.258Z,2.45
2018-11-23T03:54:27.629Z,2.82
2018-11-23T03:56:56.538Z,2.81
2018-11-23T03:59:25.222Z,2.77
2018-11-23T04:01:53.633Z,2.78
2018-11-23T04:04:22.578Z,2.77
2018-11-23T04:06:51.580Z,2.76
2018-11-23T04:09:20.242Z,1.74
2018-11-23T04:11:48.665Z,2.72
2018-11-23T04:14:17.123Z,2.72
2018-11-23T04:16:45.845Z,2.72
2018-11-23T04:19:14.390Z,2.73
2018-11-23T04:21:42.802Z,2.73
2018-11-23T04:24:10.920Z,2.71
2018-11-23T04:26:39.472Z,2.68
2018-11-23T04:29:07.794Z,1.89
2018-11-23T04:31:37.556Z,2.66
2018-11-23T04:34:05.960Z,2.64
2018-11-23T04:36:34.187Z,2.60
2018-11-23T04:39:04.341Z,2.46
2018-11-23T04:41:32.903Z,2.61
2018-11-23T04:44:01.354Z,2.57
2018-11-23T04:46:29.893Z,2.55
2018-11-23T04:48:58.404Z,2.51
2018-11-23T04:51:26.568Z,2.12
2018-11-23T04:53:55.056Z,2.45
2018-11-23T04:56:23.548Z,2.41
2018-11-23T04:58:52.319Z,2.16
2018-11-23T05:01:21.014Z,2.37
2018-11-23T05:03:49.722Z,1.96
2018-11-23T05:06:18.167Z,2.31
2018-11-23T05:08:47.353Z,2.26
2018-11-23T05:11:33.001Z,2.27
2018-11-23T05:14:01.636Z,2.14
2018-11-23T05:16:30.971Z,2.21
2018-11-23T05:19:00.684Z,2.18
2018-11-23T05:21:29.533Z,1.92
2018-11-23T05:24:01.110Z,1.74
2018-11-23T05:26:30.294Z,2.13
2018-11-23T05:28:59.403Z,2.12
2018-11-23T05:31:27.778Z,2.09
2018-11-23T05:33:56.452Z,0.37
2018-11-23T05:36:25.795Z,1.01
2018-11-23T05:38:54.069Z,2.06
2018-11-23T05:41:22.735Z,1.81
2018-11-23T05:43:51.012Z,2.08
2018-11-23T05:46:19.506Z,2.07
2018-11-23T05:48:48.244Z,2.08
2018-11-23T05:51:16.743Z,2.09
2018-11-23T05:53:45.615Z,2.08
2018-11-23T05:56:14.364Z,2.08
2018-11-23T05:58:42.926Z,2.09
2018-11-23T06:01:12.099Z,1.83
2018-11-23T06:03:40.705Z,2.10
2018-11-23T06:06:08.974Z,2.10
2018-11-23T06:08:37.467Z,2.10
2018-11-23T06:11:07.209Z,2.10
2018-11-23T06:13:35.722Z,2.11
2018-11-23T06:16:08.712Z,2.00
2018-11-23T06:18:36.959Z,2.11
2018-11-23T06:21:05.356Z,2.13
2018-11-23T06:23:34.380Z,2.15
2018-11-23T06:26:10.790Z,2.15
2018-11-23T06:28:39.329Z,1.75
2018-11-23T06:31:07.550Z,1.73
2018-11-23T06:33:38.651Z,2.09
2018-11-23T06:36:07.307Z,1.92
2018-11-23T06:38:35.835Z,1.76
2018-11-23T06:41:10.136Z,1.61
2018-11-23T06:43:32.920Z,1.95
2018-11-23T06:46:02.224Z,1.92
2018-11-23T06:48:30.439Z,1.87
2018-11-23T06:50:58.863Z,1.82
2018-11-23T06:53:27.279Z,1.65
2018-11-23T06:55:55.979Z,1.49
2018-11-23T06:58:24.638Z,1.57
2018-11-23T07:00:53.540Z,1.40
2018-11-23T07:03:21.709Z,1.46
2018-11-23T07:05:50.757Z,1.53
2018-11-23T07:08:19.583Z,1.48
2018-11-23T07:10:48.037Z,1.41
2018-11-23T07:13:16.596Z,1.02
2018-11-23T07:15:44.799Z,1.24
2018-11-23T07:18:13.183Z,1.33
2018-11-23T07:20:42.032Z,1.15
2018-11-23T07:23:10.273Z,1.11
2018-11-23T07:25:39.129Z,0.97
2018-11-23T07:28:15.077Z,1.19
2018-11-23T07:30:36.632Z,1.19
2018-11-23T07:33:05.747Z,1.17
2018-11-23T07:35:34.174Z,0.77
2018-11-23T07:38:02.437Z,1.17
2018-11-23T07:40:44.520Z,1.15
2018-11-23T07:43:13.253Z,1.14
2018-11-23T07:45:41.679Z,1.13
2018-11-23T07:48:10.634Z,0.87
2018-11-23T07:50:39.413Z,1.16
2018-11-23T07:53:08.313Z,0.94
2018-11-23T07:55:36.993Z,0.99
2018-11-23T07:58:06.221Z,0.75
2018-11-23T08:00:36.238Z,1.33
2018-11-23T08:03:05.917Z,1.02
2018-11-23T08:05:34.484Z,1.18
2018-11-23T08:08:03.335Z,0.74
2018-11-23T08:10:31.167Z,1.54
2018-11-23T08:12:59.602Z,1.60
2018-11-23T08:15:28.435Z,1.63
2018-11-23T08:17:56.594Z,1.65
2018-11-23T08:20:25.492Z,1.66
2018-11-23T08:22:53.835Z,1.68
2018-11-23T08:25:23.291Z,1.69
2018-11-23T08:27:53.569Z,1.66
2018-11-23T08:30:25.032Z,1.69
2018-11-23T08:32:53.929Z,1.68
2018-11-23T08:35:22.606Z,1.69
2018-11-23T08:37:50.794Z,1.70
2018-11-23T08:40:21.305Z,1.46
2018-11-23T08:42:50.809Z,0.66
2018-11-23T08:45:21.732Z,1.65
2018-11-23T08:47:50.116Z,1.52
2018-11-23T08:50:22.802Z,0.89
2018-11-23T08:52:51.133Z,1.21
2018-11-23T08:55:19.646Z,1.32
2018-11-23T08:57:48.163Z,1.34
2018-11-23T09:00:18.592Z,0.79
2018-11-23T09:02:48.274Z,0.96
2018-11-23T09:05:16.824Z,1.14
2018-11-23T09:07:46.200Z,0.94
2018-11-23T09:10:17.116Z,1.11
2018-11-23T09:12:47.398Z,1.12
2018-11-23T09:15:15.779Z,1.11
2018-11-23T09:17:44.494Z,1.09
2018-11-23T09:20:13.989Z,1.02
2018-11-23T09:22:42.569Z,1.14
2018-11-23T09:25:13.358Z,1.00
2018-11-23T09:27:41.813Z,0.72
2018-11-23T09:30:16.621Z,0.98
2018-11-23T09:32:45.754Z,0.77
2018-11-23T09:35:14.274Z,0.74
2018-11-23T09:37:43.055Z,1.38
2018-11-23T09:40:14.548Z,1.31
2018-11-23T09:42:42.816Z,1.33
2018-11-23T09:45:14.243Z,1.41
2018-11-23T09:47:43.889Z,1.66
2018-11-23T09:50:14.630Z,1.80
2018-11-23T09:52:43.209Z,1.83
2018-11-23T09:55:11.676Z,1.81
2018-11-23T09:57:40.083Z,1.83
2018-11-23T10:00:10.552Z,1.55
2018-11-23T10:02:39.286Z,1.85
2018-11-23T10:05:08.542Z,1.50
2018-11-23T10:07:37.003Z,1.94
2018-11-23T10:10:06.573Z,1.98
2018-11-23T10:12:34.782Z,1.92
2018-11-23T10:15:03.002Z,2.04
2018-11-23T10:17:31.601Z,2.01
2018-11-23T10:20:00.637Z,2.05
2018-11-23T10:22:29.242Z,1.96
2018-11-23T10:24:58.070Z,2.13
2018-11-23T10:27:26.763Z,2.16
2018-11-23T10:29:55.315Z,2.23
2018-11-23T10:32:24.153Z,2.24
2018-11-23T10:34:52.479Z,2.18
2018-11-23T10:37:20.993Z,1.60
2018-11-23T10:39:49.672Z,2.09
2018-11-23T10:42:18.310Z,2.12
2018-11-23T10:44:46.769Z,2.12
2018-11-23T10:47:15.366Z,2.01
2018-11-23T10:49:43.840Z,1.56
2018-11-23T10:52:12.731Z,2.27
2018-11-23T10:54:41.818Z,2.34
2018-11-23T10:57:10.184Z,2.41
2018-11-23T10:59:39.793Z,2.31
2018-11-23T11:02:13.412Z,0.96
2018-11-23T11:04:47.202Z,1.92
2018-11-23T11:07:15.400Z,2.60
2018-11-23T11:09:43.887Z,2.67
2018-11-23T11:12:12.349Z,2.71
2018-11-23T11:14:40.929Z,2.75
2018-11-23T11:17:09.595Z,2.55
2018-11-23T11:19:37.827Z,2.81
2018-11-23T11:22:06.352Z,2.81
2018-11-23T11:24:34.996Z,2.76
2018-11-23T11:27:03.837Z,2.65
2018-11-23T11:29:31.958Z,2.68
2018-11-23T11:32:00.352Z,2.74
2018-11-23T11:34:28.976Z,2.68
2018-11-23T11:36:57.308Z,2.68
2018-11-23T11:39:26.804Z,2.77
2018-11-23T11:41:55.234Z,2.77
2018-11-23T11:44:23.849Z,2.39
2018-11-23T11:46:52.174Z,2.66
2018-11-23T11:49:21.496Z,2.24
2018-11-23T11:51:50.526Z,2.69
2018-11-23T11:54:19.486Z,3.02
2018-11-23T11:56:47.660Z,2.98
2018-11-23T11:59:15.991Z,2.75
2018-11-23T12:01:44.970Z,2.93
2018-11-23T12:04:13.212Z,2.78
2018-11-23T12:06:41.357Z,2.98
2018-11-23T12:09:11.317Z,3.08
2018-11-23T12:11:39.839Z,2.44
2018-11-23T12:14:08.066Z,3.08
2018-11-23T12:16:36.201Z,3.17
2018-11-23T12:19:04.394Z,3.26
2018-11-23T12:21:33.105Z,3.32
2018-11-23T12:24:02.055Z,2.99
2018-11-23T12:26:30.541Z,3.02
2018-11-23T12:28:58.691Z,3.13
2018-11-23T12:31:26.896Z,3.22
2018-11-23T12:33:55.159Z,3.10
2018-11-23T12:36:23.267Z,3.37
2018-11-23T12:38:51.857Z,3.43
2018-11-23T12:41:20.422Z,3.34
2018-11-23T12:43:48.744Z,3.41
2018-11-23T12:46:16.893Z,3.58
2018-11-23T12:48:45.843Z,3.64
2018-11-23T12:51:13.971Z,3.66
2018-11-23T12:53:42.790Z,3.65
2018-11-23T12:56:11.240Z,3.32
2018-11-23T12:58:39.673Z,3.68
2018-11-23T13:01:08.037Z,3.66
2018-11-23T13:03:36.155Z,3.62
2018-11-23T13:06:06.865Z,3.58
2018-11-23T13:08:36.540Z,3.59
2018-11-23T13:11:04.794Z,3.51
2018-11-23T13:13:33.356Z,3.44
2018-11-23T13:16:02.032Z,3.62
2018-11-23T13:18:30.274Z,3.55
2018-11-23T13:20:58.879Z,3.67
2018-11-23T13:23:31.736Z,3.41
2018-11-23T13:26:02.079Z,3.44
2018-11-23T13:28:31.009Z,3.18
2018-11-23T13:30:59.157Z,3.42
2018-11-23T13:36:12.038Z,3.50
2018-11-23T13:38:40.223Z,3.52
2018-11-23T13:41:10.649Z,3.16
2018-11-23T13:43:43.041Z,3.48
2018-11-23T13:46:12.052Z,2.56
2018-11-23T13:48:41.456Z,3.33
2018-11-23T13:51:12.312Z,1.31
2018-11-23T13:53:40.492Z,3.25
2018-11-23T13:56:10.728Z,3.17
2018-11-23T13:58:39.632Z,3.16
2018-11-23T14:01:10.039Z,3.18
2018-11-23T14:03:42.282Z,1.25
2018-11-23T14:06:17.625Z,3.04
2018-11-23T14:08:47.984Z,2.70
2018-11-23T14:11:20.115Z,3.35
2018-11-23T14:13:53.379Z,2.01
2018-11-23T14:16:23.854Z,3.38
2018-11-23T14:18:52.345Z,3.24
2018-11-23T14:21:21.228Z,3.34
2018-11-23T14:23:49.806Z,2.08
2018-11-23T14:26:19.180Z,3.34
2018-11-23T14:28:51.118Z,3.36
2018-11-23T14:31:20.480Z,3.38
2018-11-23T14:33:49.793Z,3.39
2018-11-23T14:36:20.283Z,3.42
2018-11-23T14:38:48.578Z,3.41
2018-11-23T14:41:17.772Z,3.30
2018-11-23T14:43:49.958Z,3.39
2018-11-23T14:46:21.631Z,3.35
2018-11-23T14:48:50.243Z,3.29
2018-11-23T14:51:20.510Z,3.27
2018-11-23T14:53:48.756Z,3.22
2018-11-23T14:56:19.742Z,3.17
2018-11-23T14:58:52.048Z,3.11
2018-11-23T15:01:20.793Z,3.11
2018-11-23T15:03:50.442Z,3.13
2018-11-23T15:06:22.084Z,1.89
2018-11-23T15:08:50.640Z,3.18
2018-11-23T15:11:19.947Z,3.19
2018-11-23T15:13:53.484Z,3.19
2018-11-23T15:16:22.452Z,3.18
2018-11-23T15:18:50.825Z,3.16
2018-11-23T15:21:19.576Z,3.15
2018-11-23T15:23:50.167Z,1.45
2018-11-23T15:26:20.120Z,3.20
2018-11-23T15:28:49.653Z,3.20
2018-11-23T15:31:18.011Z,3.08
2018-11-23T15:33:48.138Z,3.19
2018-11-23T15:36:16.835Z,3.16
2018-11-23T15:38:46.397Z,3.16
2018-11-23T15:41:15.013Z,3.15
2018-11-23T15:43:44.878Z,2.77
2018-11-23T15:46:13.316Z,3.14
2018-11-23T15:48:42.334Z,3.07
2018-11-23T15:51:11.640Z,3.00
2018-11-23T15:53:41.245Z,2.95
2018-11-23T15:56:10.716Z,2.92
2018-11-23T15:58:39.621Z,2.90
2018-11-23T16:01:11.326Z,2.92
2018-11-23T16:03:41.083Z,2.90
2018-11-23T16:06:14.996Z,2.89
2018-11-23T16:08:45.702Z,2.92
2018-11-23T16:11:15.197Z,2.96
2018-11-23T16:13:47.331Z,2.96
2018-11-23T16:16:20.374Z,2.93
2018-11-23T16:18:50.135Z,2.93
2018-11-23T16:21:18.428Z,2.99
2018-11-23T16:23:47.942Z,3.02
2018-11-23T16:26:17.819Z,3.02
2018-11-23T16:28:46.047Z,3.04
2018-11-23T16:31:14.512Z,3.06
2018-11-23T16:33:44.221Z,3.12
2018-11-23T16:36:13.480Z,3.12
2018-11-23T16:38:42.982Z,3.10
2018-11-23T16:41:11.603Z,3.12
2018-11-23T16:43:40.793Z,3.15
2018-11-23T16:46:09.552Z,3.14
2018-11-23T16:48:38.251Z,3.12
2018-11-23T16:51:07.106Z,3.11
2018-11-23T16:53:35.292Z,3.08
2018-11-23T16:56:04.075Z,2.58
2018-11-23T16:58:33.399Z,3.08
2018-11-23T17:01:03.455Z,3.09
2018-11-23T17:03:34.456Z,3.12
2018-11-23T17:06:03.033Z,3.11
2018-11-23T17:08:31.629Z,2.76
2018-11-23T17:11:00.577Z,3.02
2018-11-23T17:13:30.948Z,3.16
2018-11-23T17:16:02.424Z,3.14
2018-11-23T17:18:33.004Z,2.39
2018-11-23T17:21:04.226Z,3.10
2018-11-23T17:23:35.406Z,3.09
2018-11-23T17:26:04.853Z,3.08
2018-11-23T17:28:33.348Z,3.06
2018-11-23T17:31:01.519Z,3.07
2018-11-23T17:33:30.088Z,3.08
2018-11-23T17:35:58.303Z,3.07
2018-11-23T17:38:26.615Z,2.74
2018-11-23T17:40:55.598Z,3.13
2018-11-23T17:43:23.783Z,3.18
2018-11-23T17:45:51.951Z,3.21
2018-11-23T17:48:20.261Z,3.07
2018-11-23T17:50:48.409Z,3.23
2018-11-23T17:53:16.599Z,3.10
2018-11-23T17:55:45.231Z,3.24
2018-11-23T17:58:13.483Z,3.23
2018-11-23T18:00:41.660Z,3.23
2018-11-23T18:03:09.914Z,2.86
2018-11-23T18:05:38.090Z,3.19
2018-11-23T18:08:06.339Z,3.15
2018-11-23T18:10:35.644Z,3.13
2018-11-23T18:13:04.513Z,3.11
2018-11-23T18:15:34.222Z,3.09
2018-11-23T18:18:04.017Z,3.06
2018-11-23T18:20:33.599Z,3.05
2018-11-23T18:23:02.639Z,2.53
2018-11-23T18:25:32.396Z,3.02
2018-11-23T18:28:02.620Z,2.86
2018-11-23T18:30:32.964Z,2.99
2018-11-23T18:33:03.072Z,2.99
2018-11-23T18:35:32.032Z,2.99
2018-11-23T18:38:00.570Z,2.86
2018-11-23T18:40:32.269Z,2.96
2018-11-23T18:42:57.356Z,2.98
2018-11-23T18:45:25.888Z,3.02
2018-11-23T18:47:54.536Z,3.06
2018-11-23T18:50:24.085Z,3.12
2018-11-23T18:52:52.464Z,3.16
2018-11-23T18:55:20.654Z,3.20
2018-11-23T18:57:48.932Z,3.24
2018-11-23T19:00:18.316Z,3.28
2018-11-23T19:02:47.351Z,3.31
2018-11-23T19:05:21.888Z,3.33
2018-11-23T19:07:50.056Z,3.33
2018-11-23T19:10:18.509Z,3.09
2018-11-23T19:12:46.987Z,3.38
2018-11-23T19:15:17.504Z,3.41
2018-11-23T19:17:45.356Z,3.42
2018-11-23T19:20:17.755Z,3.41
2018-11-23T19:22:47.118Z,3.41
2018-11-23T19:25:15.875Z,3.39
2018-11-23T19:27:44.088Z,3.37
2018-11-23T19:30:13.975Z,3.35
2018-11-23T19:32:42.316Z,2.97
2018-11-23T19:35:10.512Z,3.35
2018-11-23T19:37:38.857Z,3.35
2018-11-23T19:40:12.196Z,3.34
2018-11-23T19:42:40.377Z,3.09
2018-11-23T19:45:14.257Z,3.32
2018-11-23T19:47:43.006Z,3.31
2018-11-23T19:50:12.925Z,3.30
2018-11-23T19:52:41.824Z,3.29
2018-11-23T19:55:10.993Z,3.30
2018-11-23T19:57:39.135Z,3.30
2018-11-23T20:00:15.931Z,3.31
2018-11-23T20:02:44.316Z,3.32
2018-11-23T20:05:13.708Z,3.31
2018-11-23T20:07:42.023Z,3.30
2018-11-23T20:10:15.792Z,3.32
2018-11-23T20:12:45.159Z,3.36
2018-11-23T20:15:16.553Z,3.37
2018-11-23T20:17:44.912Z,2.77
2018-11-23T20:20:15.257Z,3.41
2018-11-23T20:22:44.114Z,3.40
2018-11-23T20:25:13.543Z,3.40
2018-11-23T20:27:42.779Z,3.42
2018-11-23T20:30:13.895Z,3.31
2018-11-23T20:32:42.064Z,3.43
2018-11-23T20:35:11.830Z,3.44
2018-11-23T20:37:40.588Z,3.45
2018-11-23T20:40:13.737Z,3.47
2018-11-23T20:42:42.672Z,3.47
2018-11-23T20:45:11.551Z,3.49
2018-11-23T20:47:40.100Z,3.51
2018-11-23T20:50:13.798Z,3.52
2018-11-23T20:52:42.384Z,3.51
2018-11-23T20:55:16.292Z,3.52
2018-11-23T20:57:46.513Z,3.52
2018-11-23T21:00:15.820Z,3.54
2018-11-23T21:02:44.892Z,3.45
2018-11-23T21:05:15.178Z,3.59
2018-11-23T21:07:43.748Z,3.59
2018-11-23T21:10:20.084Z,3.59
2018-11-23T21:12:45.564Z,3.47
2018-11-23T21:15:19.136Z,3.49
2018-11-23T21:17:50.602Z,3.58
2018-11-23T21:20:19.529Z,3.58
2018-11-23T21:22:48.152Z,3.58
2018-11-23T21:25:16.747Z,3.59
2018-11-23T21:27:46.836Z,3.56
2018-11-23T21:30:19.215Z,3.53
2018-11-23T21:32:47.621Z,3.51
2018-11-23T21:35:16.822Z,3.50
2018-11-23T21:37:47.407Z,3.47
2018-11-23T21:40:20.504Z,3.46
2018-11-23T21:42:49.383Z,3.44
2018-11-23T21:45:20.254Z,3.42
2018-11-23T21:47:48.564Z,3.37
2018-11-23T21:50:24.566Z,3.23
2018-11-23T21:52:46.775Z,3.35
2018-11-23T21:55:16.520Z,3.37
2018-11-23T21:57:45.261Z,3.38
2018-11-23T22:00:16.408Z,3.39
2018-11-23T22:02:45.744Z,3.40
2018-11-23T22:05:14.698Z,3.40
2018-11-23T22:07:43.326Z,3.09
2018-11-23T22:10:16.183Z,3.39
2018-11-23T22:12:45.008Z,3.38
2018-11-23T22:15:17.386Z,2.99
2018-11-23T22:17:46.223Z,3.19
2018-11-23T22:20:15.868Z,3.34
2018-11-23T22:22:44.036Z,3.35
2018-11-23T22:25:13.293Z,3.37
2018-11-23T22:27:42.018Z,3.38
2018-11-23T22:30:16.048Z,3.38
2018-11-23T22:32:44.977Z,3.38
2018-11-23T22:35:14.233Z,3.40
2018-11-23T22:37:42.730Z,3.40
2018-11-23T22:40:16.214Z,3.41
2018-11-23T22:42:46.374Z,3.42
2018-11-23T22:45:17.733Z,3.43
2018-11-23T22:47:46.265Z,2.92
2018-11-23T22:50:17.124Z,3.41
2018-11-23T22:52:45.552Z,3.39
2018-11-23T22:55:14.448Z,3.33
2018-11-23T22:57:43.534Z,3.32
2018-11-23T23:00:24.349Z,3.05
2018-11-23T23:02:53.144Z,3.17
2018-11-23T23:05:23.531Z,3.32
2018-11-23T23:07:51.807Z,3.34
2018-11-23T23:10:20.628Z,3.32
2018-11-23T23:12:48.935Z,3.30
2018-11-23T23:15:17.704Z,3.30
2018-11-23T23:17:46.879Z,3.13
2018-11-23T23:20:18.456Z,3.29
2018-11-23T23:22:47.143Z,3.32
2018-11-23T23:25:16.193Z,3.33
2018-11-23T23:27:44.887Z,3.34
2018-11-23T23:30:14.224Z,3.35
2018-11-23T23:32:43.027Z,3.35
2018-11-23T23:35:13.244Z,3.17
2018-11-23T23:37:41.548Z,3.29
2018-11-23T23:40:12.043Z,3.30
2018-11-23T23:42:40.203Z,3.32
2018-11-23T23:45:10.684Z,3.32
2018-11-23T23:47:39.420Z,3.33
2018-11-23T23:50:10.215Z,3.20
2018-11-23T23:52:38.541Z,3.37
2018-11-23T23:55:08.206Z,3.36
2018-11-23T23:57:36.736Z,3.35
